createdAt,value
2023-10-09T00:00:25.735Z,62.10
2023-10-09T00:01:25.790Z,62.10
2023-10-09T00:02:25.750Z,62.10
2023-10-09T00:03:25.795Z,62.10
2023-10-09T00:04:25.785Z,62.10
2023-10-09T00:05:25.716Z,62.10
2023-10-09T00:06:25.868Z,62.10
2023-10-09T00:07:25.714Z,62.10
2023-10-09T00:08:25.730Z,62.20
2023-10-09T00:09:25.811Z,62.20
2023-10-09T00:10:25.755Z,62.10
2023-10-09T00:11:25.787Z,62.10
2023-10-09T00:12:25.843Z,62.10
2023-10-09T00:13:25.824Z,62.10
2023-10-09T00:15:25.915Z,62.10
2023-10-09T00:16:25.896Z,62.10
2023-10-09T00:17:25.871Z,62.10
2023-10-09T00:18:25.936Z,62.10
2023-10-09T00:19:25.872Z,62.10
2023-10-09T00:20:25.886Z,62.10
2023-10-09T00:21:25.925Z,62.10
2023-10-09T00:22:25.898Z,62.20
2023-10-09T00:23:25.902Z,62.10
2023-10-09T00:24:26.081Z,62.10
2023-10-09T00:25:25.956Z,62.10
2023-10-09T00:26:25.966Z,62.20
2023-10-09T00:27:26.024Z,62.20
2023-10-09T00:28:26.026Z,62.20
2023-10-09T00:29:26.030Z,62.20
2023-10-09T00:30:26.077Z,62.20
2023-10-09T00:31:26.079Z,62.20
2023-10-09T00:32:26.060Z,62.10
2023-10-09T00:33:26.229Z,62.10
2023-10-09T00:34:26.065Z,62.10
2023-10-09T00:35:26.096Z,62.10
2023-10-09T00:36:26.151Z,62.20
2023-10-09T00:37:26.113Z,62.20
2023-10-09T00:38:26.107Z,62.20
2023-10-09T00:39:26.145Z,62.20
2023-10-09T00:40:26.113Z,62.20
2023-10-09T00:41:27.253Z,62.10
2023-10-09T00:42:26.153Z,62.10
2023-10-09T00:43:26.124Z,62.10
2023-10-09T00:44:26.131Z,62.10
2023-10-09T00:45:26.210Z,62.10
2023-10-09T00:46:26.337Z,62.10
2023-10-09T00:47:26.200Z,62.10
2023-10-09T00:48:26.223Z,62.10
2023-10-09T00:49:26.174Z,62.10
2023-10-09T00:50:26.183Z,62.10
2023-10-09T00:51:26.214Z,62.10
2023-10-09T00:52:26.204Z,62.10
2023-10-09T00:53:26.214Z,62.10
2023-10-09T00:54:26.233Z,62.10
2023-10-09T00:55:26.215Z,62.10
2023-10-09T00:56:26.228Z,62.10
2023-10-09T00:57:26.243Z,62.10
2023-10-09T00:58:26.234Z,62.10
2023-10-09T00:59:26.238Z,62.10
2023-10-09T01:00:26.309Z,62.10
2023-10-09T01:01:26.297Z,62.10
2023-10-09T01:02:26.334Z,62.10
2023-10-09T01:03:26.351Z,62.10
2023-10-09T01:04:26.553Z,62.10
2023-10-09T01:05:26.277Z,62.10
2023-10-09T01:06:26.331Z,62.10
2023-10-09T01:07:26.304Z,62.20
2023-10-09T01:08:26.337Z,62.10
2023-10-09T01:09:26.351Z,62.20
2023-10-09T01:10:26.322Z,62.10
2023-10-09T01:11:26.333Z,62.10
2023-10-09T01:12:26.350Z,62.10
2023-10-09T01:13:26.399Z,62.10
2023-10-09T01:14:26.360Z,62.10
2023-10-09T01:15:26.378Z,62.10
2023-10-09T01:16:26.408Z,62.10
2023-10-09T01:17:26.414Z,62.10
2023-10-09T01:18:26.407Z,62.10
2023-10-09T01:19:26.417Z,62.10
2023-10-09T01:20:26.395Z,62.20
2023-10-09T01:21:26.545Z,62.20
2023-10-09T01:22:26.416Z,62.20
2023-10-09T01:24:26.496Z,62.10
2023-10-09T01:25:26.417Z,62.10
2023-10-09T01:26:26.421Z,62.10
2023-10-09T01:27:26.478Z,62.10
2023-10-09T01:28:26.434Z,62.10
2023-10-09T01:29:26.453Z,62.10
2023-10-09T01:30:26.481Z,62.10
2023-10-09T01:31:26.512Z,62.10
2023-10-09T01:32:26.501Z,62.20
2023-10-09T01:33:26.532Z,62.20
2023-10-09T01:34:26.533Z,62.20
2023-10-09T01:35:26.537Z,62.10
2023-10-09T01:36:26.528Z,62.10
2023-10-09T01:37:26.501Z,62.10
2023-10-09T01:38:26.518Z,62.20
2023-10-09T01:39:26.561Z,62.20
2023-10-09T01:40:26.530Z,62.20
2023-10-09T01:41:26.538Z,62.20
2023-10-09T01:42:26.614Z,62.10
2023-10-09T01:43:26.557Z,62.10
2023-10-09T01:44:26.573Z,62.10
2023-10-09T01:45:26.652Z,62.10
2023-10-09T01:46:26.616Z,62.10
2023-10-09T01:47:26.625Z,62.20
2023-10-09T01:48:26.638Z,62.20
2023-10-09T01:50:26.644Z,62.20
2023-10-09T01:51:26.816Z,62.10
2023-10-09T01:52:26.696Z,62.20
2023-10-09T01:53:26.692Z,62.20
2023-10-09T01:54:26.752Z,62.20
2023-10-09T01:55:26.721Z,62.20
2023-10-09T01:56:26.730Z,62.20
2023-10-09T01:57:26.783Z,62.20
2023-10-09T01:58:26.769Z,62.20
2023-10-09T01:59:26.764Z,62.20
2023-10-09T02:00:26.818Z,62.20
2023-10-09T02:01:26.810Z,62.20
2023-10-09T02:02:27.186Z,62.20
2023-10-09T02:03:26.888Z,62.20
2023-10-09T02:04:26.819Z,62.20
2023-10-09T02:05:26.812Z,62.20
2023-10-09T02:06:26.896Z,62.20
2023-10-09T02:07:26.841Z,62.20
2023-10-09T02:08:26.823Z,62.20
2023-10-09T02:09:26.855Z,62.20
2023-10-09T02:10:26.959Z,62.20
2023-10-09T02:11:26.871Z,62.20
2023-10-09T02:12:26.886Z,62.20
2023-10-09T02:13:26.863Z,62.20
2023-10-09T02:14:26.867Z,62.20
2023-10-09T02:15:26.897Z,62.20
2023-10-09T02:16:26.915Z,62.20
2023-10-09T02:17:26.935Z,62.20
2023-10-09T02:18:27.018Z,62.20
2023-10-09T02:19:26.932Z,62.33
2023-10-09T02:20:26.930Z,62.20
2023-10-09T02:21:26.969Z,62.30
2023-10-09T02:22:26.942Z,62.23
2023-10-09T02:23:26.972Z,62.20
2023-10-09T02:24:26.983Z,62.23
2023-10-09T02:25:26.969Z,62.30
2023-10-09T02:26:27.528Z,62.30
2023-10-09T02:27:26.984Z,62.33
2023-10-09T02:28:26.975Z,62.33
2023-10-09T02:29:26.974Z,62.33
2023-10-09T02:30:27.005Z,62.33
2023-10-09T02:31:27.019Z,62.33
2023-10-09T02:32:27.116Z,62.33
2023-10-09T02:33:27.048Z,62.33
2023-10-09T02:34:27.010Z,62.33
2023-10-09T02:35:27.008Z,62.33
2023-10-09T02:36:27.070Z,62.33
2023-10-09T02:37:27.008Z,62.33
2023-10-09T02:38:27.015Z,62.33
2023-10-09T02:39:27.085Z,62.33
2023-10-09T02:40:27.028Z,62.33
2023-10-09T02:41:27.048Z,62.33
2023-10-09T02:42:27.123Z,62.33
2023-10-09T02:43:27.054Z,62.33
2023-10-09T02:44:27.097Z,62.33
2023-10-09T02:45:27.084Z,62.33
2023-10-09T02:46:27.150Z,62.43
2023-10-09T02:47:27.107Z,62.43
2023-10-09T02:48:27.103Z,62.43
2023-10-09T02:49:27.094Z,62.43
2023-10-09T02:50:27.125Z,62.43
2023-10-09T02:51:27.186Z,62.43
2023-10-09T02:52:27.135Z,62.43
2023-10-09T02:53:27.130Z,62.43
2023-10-09T02:54:27.161Z,62.43
2023-10-09T02:55:27.180Z,62.43
2023-10-09T02:56:29.310Z,62.43
2023-10-09T02:57:27.183Z,62.43
2023-10-09T02:58:27.172Z,62.43
2023-10-09T02:59:27.172Z,62.53
2023-10-09T03:00:27.262Z,62.53
2023-10-09T03:01:27.215Z,62.43
2023-10-09T03:02:27.186Z,62.53
2023-10-09T03:03:27.316Z,62.53
2023-10-09T03:04:27.277Z,62.53
2023-10-09T03:05:27.228Z,62.53
2023-10-09T03:06:27.266Z,62.53
2023-10-09T03:07:27.261Z,62.53
2023-10-09T03:08:27.263Z,62.53
2023-10-09T03:09:27.421Z,62.53
2023-10-09T03:10:27.304Z,62.53
2023-10-09T03:11:27.278Z,62.53
2023-10-09T03:12:27.293Z,62.63
2023-10-09T03:13:27.252Z,62.53
2023-10-09T03:14:27.276Z,62.63
2023-10-09T03:15:27.322Z,62.63
2023-10-09T03:16:27.294Z,62.63
2023-10-09T03:17:27.305Z,62.63
2023-10-09T03:18:27.345Z,62.63
2023-10-09T03:19:27.302Z,62.63
2023-10-09T03:20:27.302Z,62.63
2023-10-09T03:21:27.470Z,62.63
2023-10-09T03:22:27.306Z,62.63
2023-10-09T03:23:27.328Z,62.63
2023-10-09T03:24:27.346Z,62.63
2023-10-09T03:25:27.350Z,62.63
2023-10-09T03:26:27.348Z,62.63
2023-10-09T03:27:27.396Z,62.63
2023-10-09T03:28:27.361Z,62.63
2023-10-09T03:29:27.390Z,62.63
2023-10-09T03:30:27.426Z,62.63
2023-10-09T03:31:27.422Z,62.63
2023-10-09T03:32:27.510Z,62.63
2023-10-09T03:33:27.456Z,62.63
2023-10-09T03:34:27.437Z,62.63
2023-10-09T03:35:27.623Z,62.63
2023-10-09T03:36:27.473Z,62.73
2023-10-09T03:37:27.458Z,62.63
2023-10-09T03:38:27.459Z,62.73
2023-10-09T03:39:27.478Z,62.73
2023-10-09T03:40:27.462Z,62.73
2023-10-09T03:41:27.475Z,62.73
2023-10-09T03:42:27.546Z,62.73
2023-10-09T03:43:27.534Z,62.73
2023-10-09T03:44:27.510Z,62.73
2023-10-09T03:45:27.561Z,62.73
2023-10-09T03:46:27.518Z,62.73
2023-10-09T03:47:27.562Z,62.73
2023-10-09T03:48:27.552Z,62.73
2023-10-09T03:49:27.530Z,62.73
2023-10-09T03:50:27.544Z,62.73
2023-10-09T03:51:27.711Z,62.73
2023-10-09T03:52:27.603Z,62.73
2023-10-09T03:53:27.574Z,62.73
2023-10-09T03:54:27.588Z,62.73
2023-10-09T03:55:27.583Z,62.73
2023-10-09T03:56:27.585Z,62.73
2023-10-09T03:57:27.682Z,62.73
2023-10-09T03:58:27.622Z,62.73
2023-10-09T03:59:27.749Z,62.73
2023-10-09T04:00:27.680Z,62.73
2023-10-09T04:01:27.649Z,62.73
2023-10-09T04:02:27.714Z,62.73
2023-10-09T04:04:27.784Z,62.73
2023-10-09T04:05:27.718Z,62.73
2023-10-09T04:06:27.753Z,62.73
2023-10-09T04:07:27.710Z,62.86
2023-10-09T04:08:27.739Z,62.76
2023-10-09T04:10:27.760Z,62.76
2023-10-09T04:11:27.769Z,62.73
2023-10-09T04:13:27.787Z,62.73
2023-10-09T04:14:27.791Z,62.76
2023-10-09T04:15:27.891Z,62.76
2023-10-09T04:16:27.833Z,62.76
2023-10-09T04:17:27.843Z,62.86
2023-10-09T04:19:27.938Z,62.76
2023-10-09T04:20:27.877Z,62.86
2023-10-09T04:21:27.965Z,62.86
2023-10-09T04:22:27.927Z,62.86
2023-10-09T04:23:27.948Z,62.76
2023-10-09T04:24:27.960Z,62.83
2023-10-09T04:25:28.067Z,62.86
2023-10-09T04:26:30.127Z,62.86
2023-10-09T04:27:28.139Z,62.86
2023-10-09T04:28:28.023Z,62.86
2023-10-09T04:29:28.600Z,62.86
2023-10-09T04:30:28.239Z,62.86
2023-10-09T04:31:28.146Z,62.86
2023-10-09T04:32:28.134Z,62.86
2023-10-09T04:33:28.180Z,62.86
2023-10-09T04:34:28.152Z,62.86
2023-10-09T04:35:28.153Z,62.86
2023-10-09T04:36:28.190Z,62.86
2023-10-09T04:37:28.166Z,62.86
2023-10-09T04:38:28.163Z,62.86
2023-10-09T04:39:28.184Z,62.86
2023-10-09T04:40:28.202Z,62.86
2023-10-09T04:41:28.204Z,62.86
2023-10-09T04:42:28.235Z,62.86
2023-10-09T04:43:28.209Z,62.86
2023-10-09T04:44:28.245Z,62.86
2023-10-09T04:45:28.265Z,62.86
2023-10-09T04:46:28.276Z,62.86
2023-10-09T04:47:28.285Z,62.86
2023-10-09T04:48:28.301Z,62.86
2023-10-09T04:49:28.246Z,62.86
2023-10-09T04:50:28.265Z,62.86
2023-10-09T04:51:28.325Z,62.86
2023-10-09T04:52:28.250Z,62.86
2023-10-09T04:53:28.256Z,62.86
2023-10-09T04:54:28.283Z,62.86
2023-10-09T04:55:28.298Z,62.86
2023-10-09T04:56:28.315Z,62.86
2023-10-09T04:57:28.439Z,62.86
2023-10-09T04:58:28.388Z,62.86
2023-10-09T04:59:28.393Z,62.86
2023-10-09T05:00:28.853Z,62.86
2023-10-09T05:01:28.423Z,62.86
2023-10-09T05:02:28.447Z,62.86
2023-10-09T05:03:28.740Z,62.86
2023-10-09T05:04:28.476Z,62.86
2023-10-09T05:05:28.437Z,62.96
2023-10-09T05:06:28.507Z,62.96
2023-10-09T05:07:28.430Z,63.67
2023-10-09T05:08:28.650Z,63.87
2023-10-09T05:09:28.478Z,64.07
2023-10-09T05:10:28.465Z,63.67
2023-10-09T05:11:28.488Z,63.79
2023-10-09T05:12:28.550Z,63.90
2023-10-09T05:13:28.520Z,63.90
2023-10-09T05:14:28.662Z,63.70
2023-10-09T05:15:28.590Z,63.59
2023-10-09T05:16:28.555Z,63.70
2023-10-09T05:17:28.579Z,63.70
2023-10-09T05:18:28.673Z,63.82
2023-10-09T05:19:28.667Z,63.82
2023-10-09T05:20:28.577Z,63.82
2023-10-09T05:21:28.642Z,63.82
2023-10-09T05:22:28.576Z,63.82
2023-10-09T05:23:28.578Z,63.93
2023-10-09T05:24:28.628Z,63.93
2023-10-09T05:25:28.602Z,64.03
2023-10-09T05:26:28.604Z,64.03
2023-10-09T05:27:28.678Z,64.03
2023-10-09T05:28:28.603Z,64.13
2023-10-09T05:29:28.619Z,64.13
2023-10-09T05:30:28.779Z,64.16
2023-10-09T05:31:28.652Z,64.26
2023-10-09T05:32:28.718Z,64.26
2023-10-09T05:33:28.687Z,64.26
2023-10-09T05:34:28.669Z,64.26
2023-10-09T05:35:28.793Z,64.26
2023-10-09T05:36:28.756Z,64.56
2023-10-09T05:37:28.668Z,64.46
2023-10-09T05:38:28.687Z,64.46
2023-10-09T05:39:28.900Z,64.56
2023-10-09T05:40:28.763Z,64.66
2023-10-09T05:41:28.694Z,64.66
2023-10-09T05:42:28.796Z,64.66
2023-10-09T05:43:28.725Z,64.56
2023-10-09T05:44:28.713Z,64.66
2023-10-09T05:45:28.764Z,64.66
2023-10-09T05:46:28.747Z,64.66
2023-10-09T05:47:28.750Z,64.66
2023-10-09T05:48:29.024Z,64.76
2023-10-09T05:49:28.740Z,64.86
2023-10-09T05:50:28.792Z,64.96
2023-10-09T05:51:28.847Z,65.06
2023-10-09T05:52:28.784Z,65.06
2023-10-09T05:53:29.083Z,65.26
2023-10-09T05:54:28.810Z,65.06
2023-10-09T05:55:28.894Z,65.16
2023-10-09T05:56:28.830Z,65.06
2023-10-09T05:57:28.855Z,65.06
2023-10-09T05:59:28.933Z,65.26
2023-10-09T06:00:28.982Z,65.26
2023-10-09T06:01:29.016Z,65.36
2023-10-09T06:02:28.991Z,65.47
2023-10-09T06:03:29.000Z,65.47
2023-10-09T06:04:29.172Z,65.56
2023-10-09T06:05:28.988Z,65.47
2023-10-09T06:06:28.992Z,65.47
2023-10-09T06:07:29.110Z,65.26
2023-10-09T06:08:29.219Z,65.26
2023-10-09T06:09:29.102Z,65.47
2023-10-09T06:12:29.098Z,65.16
2023-10-09T06:13:29.111Z,65.16
2023-10-09T06:14:29.051Z,65.26
2023-10-09T06:15:29.312Z,65.36
2023-10-09T06:16:29.090Z,65.36
2023-10-09T06:19:29.928Z,65.77
2023-10-09T06:20:29.169Z,65.87
2023-10-09T06:21:32.129Z,65.87
2023-10-09T06:22:29.199Z,65.77
2023-10-09T06:23:29.314Z,65.67
2023-10-09T06:24:29.414Z,65.77
2023-10-09T06:25:29.212Z,65.77
2023-10-09T06:26:29.237Z,65.97
2023-10-09T06:27:29.427Z,66.07
2023-10-09T06:28:29.232Z,65.97
2023-10-09T06:29:29.259Z,66.07
2023-10-09T06:30:29.584Z,66.17
2023-10-09T06:31:29.380Z,66.17
2023-10-09T06:32:29.361Z,66.27
2023-10-09T06:33:29.391Z,66.27
2023-10-09T06:34:29.383Z,66.27
2023-10-09T06:35:29.380Z,66.37
2023-10-09T06:36:29.554Z,66.27
2023-10-09T06:38:29.478Z,66.27
2023-10-09T06:39:29.572Z,66.07
2023-10-09T06:40:30.222Z,66.03
2023-10-09T06:41:31.438Z,65.94
2023-10-09T06:42:29.480Z,65.84
2023-10-09T06:43:29.455Z,65.73
2023-10-09T06:44:30.039Z,65.73
2023-10-09T06:45:29.513Z,65.53
2023-10-09T06:46:30.449Z,65.44
2023-10-09T06:47:29.493Z,65.44
2023-10-09T06:48:29.522Z,65.30
2023-10-09T06:49:29.483Z,65.30
2023-10-09T06:50:29.488Z,65.10
2023-10-09T06:52:29.693Z,65.10
2023-10-09T06:53:29.620Z,65.00
2023-10-09T06:54:29.977Z,64.90
2023-10-09T06:55:29.624Z,64.90
2023-10-09T06:56:29.540Z,64.80
2023-10-09T06:57:29.555Z,64.80
2023-10-09T06:58:29.714Z,64.80
2023-10-09T06:59:29.629Z,64.67
2023-10-09T07:00:29.902Z,64.57
2023-10-09T07:01:29.690Z,64.57
2023-10-09T07:02:29.718Z,64.57
2023-10-09T07:03:29.806Z,64.47
2023-10-09T07:04:29.796Z,64.47
2023-10-09T07:05:29.705Z,64.47
2023-10-09T07:06:29.731Z,64.37
2023-10-09T07:07:29.721Z,64.37
2023-10-09T07:08:29.807Z,64.37
2023-10-09T07:09:30.048Z,64.37
2023-10-09T07:10:29.717Z,64.27
2023-10-09T07:11:29.767Z,64.27
2023-10-09T07:12:29.779Z,64.27
2023-10-09T07:13:30.286Z,64.27
2023-10-09T07:14:29.860Z,64.14
2023-10-09T07:15:29.731Z,64.14
2023-10-09T07:16:29.867Z,64.04
2023-10-09T07:17:29.794Z,64.04
2023-10-09T07:18:30.041Z,63.93
2023-10-09T07:19:31.201Z,63.93
2023-10-09T07:21:29.805Z,63.84
2023-10-09T07:22:29.797Z,63.73
2023-10-09T07:24:30.875Z,63.73
2023-10-09T07:25:31.274Z,63.84
2023-10-09T07:26:31.121Z,63.81
2023-10-09T07:27:30.166Z,63.81
2023-10-09T07:28:30.078Z,63.70
2023-10-09T07:29:29.937Z,63.70
2023-10-09T07:30:30.051Z,63.60
2023-10-09T07:31:29.939Z,63.60
2023-10-09T07:32:29.977Z,63.60
2023-10-09T07:33:29.905Z,63.60
2023-10-09T07:34:29.896Z,63.50
2023-10-09T07:35:29.909Z,63.50
2023-10-09T07:36:30.129Z,63.50
2023-10-09T07:37:30.328Z,63.50
2023-10-09T07:38:30.352Z,63.50
2023-10-09T07:40:30.096Z,63.50
2023-10-09T07:41:30.872Z,63.50
2023-10-09T07:42:30.990Z,63.50
2023-10-09T07:43:30.151Z,63.60
2023-10-09T07:44:30.060Z,63.60
2023-10-09T07:45:30.309Z,63.70
2023-10-09T07:46:30.199Z,63.60
2023-10-09T07:48:32.385Z,63.60
2023-10-09T07:49:30.394Z,63.50
2023-10-09T07:50:30.302Z,63.50
2023-10-09T07:51:30.137Z,63.50
2023-10-09T07:52:30.113Z,63.50
2023-10-09T07:53:30.497Z,63.47
2023-10-09T07:54:30.192Z,63.37
2023-10-09T07:55:30.330Z,63.37
2023-10-09T07:56:30.436Z,63.37
2023-10-09T07:57:30.558Z,63.28
2023-10-09T07:58:30.252Z,63.17
2023-10-09T07:59:30.339Z,63.07
2023-10-09T08:00:30.403Z,62.84
2023-10-09T08:01:30.206Z,62.74
2023-10-09T08:02:30.209Z,62.74
2023-10-09T08:03:30.249Z,62.64
2023-10-09T08:04:30.501Z,62.64
2023-10-09T08:05:30.279Z,62.54
2023-10-09T08:06:30.873Z,62.44
2023-10-09T08:08:06.158Z,62.44
2023-10-09T08:08:38.188Z,62.64
2023-10-09T08:09:30.579Z,62.94
2023-10-09T08:10:30.354Z,62.94
2023-10-09T08:11:30.439Z,62.94
2023-10-09T08:12:30.996Z,62.92
2023-10-09T08:13:30.370Z,63.01
2023-10-09T08:14:30.353Z,63.04
2023-10-09T08:15:30.700Z,63.24
2023-10-09T08:16:30.304Z,63.34
2023-10-09T08:17:30.420Z,63.45
2023-10-09T08:18:30.553Z,63.34
2023-10-09T08:19:30.426Z,63.34
2023-10-09T08:20:31.042Z,63.34
2023-10-09T08:21:30.665Z,63.34
2023-10-09T08:22:30.420Z,63.24
2023-10-09T08:23:30.912Z,63.14
2023-10-09T08:24:31.025Z,63.14
2023-10-09T08:25:30.445Z,63.24
2023-10-09T08:26:30.515Z,63.34
2023-10-09T08:28:30.474Z,63.34
2023-10-09T08:29:30.682Z,63.34
2023-10-09T08:30:30.667Z,63.45
2023-10-09T08:31:30.433Z,63.34
2023-10-09T08:36:33.430Z,63.64
2023-10-09T08:37:30.608Z,63.75
2023-10-09T08:38:30.619Z,63.84
2023-10-09T08:39:30.537Z,63.95
2023-10-09T08:40:30.572Z,63.75
2023-10-09T08:41:30.870Z,63.95
2023-10-09T08:42:31.383Z,64.04
2023-10-09T08:43:30.628Z,63.95
2023-10-09T08:44:30.618Z,64.45
2023-10-09T08:45:30.616Z,64.75
2023-10-09T08:46:30.698Z,64.75
2023-10-09T08:47:30.681Z,64.54
2023-10-09T08:48:30.616Z,64.34
2023-10-09T08:49:30.787Z,64.01
2023-10-09T08:50:30.624Z,63.92
2023-10-09T08:51:30.712Z,63.61
2023-10-09T08:52:30.620Z,63.51
2023-10-09T08:53:30.718Z,63.31
2023-10-09T08:54:30.644Z,63.42
2023-10-09T08:55:30.766Z,63.42
2023-10-09T08:56:30.669Z,63.42
2023-10-09T08:57:30.673Z,63.51
2023-10-09T08:58:30.761Z,63.71
2023-10-09T08:59:30.680Z,63.71
2023-10-09T09:00:30.913Z,63.71
2023-10-09T09:01:31.005Z,63.81
2023-10-09T09:02:31.099Z,63.81
2023-10-09T09:03:31.418Z,63.71
2023-10-09T09:04:30.728Z,63.71
2023-10-09T09:05:30.802Z,63.71
2023-10-09T09:06:30.741Z,64.01
2023-10-09T09:07:30.886Z,64.22
2023-10-09T09:08:31.975Z,64.01
2023-10-09T09:09:30.843Z,64.62
2023-10-09T09:10:30.862Z,64.12
2023-10-09T09:11:30.885Z,64.22
2023-10-09T09:12:31.895Z,64.01
2023-10-09T09:13:31.026Z,64.12
2023-10-09T09:14:30.866Z,64.31
2023-10-09T09:15:31.421Z,64.12
2023-10-09T09:16:31.181Z,64.12
2023-10-09T09:17:31.495Z,64.22
2023-10-09T09:18:30.974Z,64.31
2023-10-09T09:19:31.225Z,64.31
2023-10-09T09:21:31.351Z,64.31
2023-10-09T09:22:31.027Z,64.31
2023-10-09T09:23:31.059Z,64.42
2023-10-09T09:24:31.266Z,64.51
2023-10-09T09:25:31.081Z,64.62
2023-10-09T09:26:31.177Z,64.72
2023-10-09T09:27:31.081Z,64.72
2023-10-09T09:28:31.929Z,64.51
2023-10-09T09:29:31.213Z,64.51
2023-10-09T09:30:31.102Z,64.51
2023-10-09T09:31:31.046Z,64.51
2023-10-09T09:32:31.123Z,64.62
2023-10-09T09:33:31.225Z,64.62
2023-10-09T09:34:31.105Z,64.72
2023-10-09T09:35:31.302Z,64.72
2023-10-09T09:36:31.663Z,64.81
2023-10-09T09:37:31.390Z,64.92
2023-10-09T09:38:31.962Z,64.92
2023-10-09T09:39:41.967Z,64.92
2023-10-09T09:40:34.304Z,64.81
2023-10-09T09:41:34.155Z,64.81
2023-10-09T09:42:31.278Z,64.81
2023-10-09T09:43:31.234Z,64.62
2023-10-09T09:44:31.295Z,64.62
2023-10-09T09:45:31.388Z,64.51
2023-10-09T09:46:31.398Z,64.51
2023-10-09T09:47:31.736Z,64.59
2023-10-09T09:48:31.558Z,64.48
2023-10-09T09:49:31.276Z,64.48
2023-10-09T09:50:31.251Z,64.48
2023-10-09T09:51:31.277Z,64.39
2023-10-09T09:52:31.386Z,64.28
2023-10-09T09:53:31.345Z,64.48
2023-10-09T09:54:31.384Z,64.48
2023-10-09T09:55:31.386Z,64.59
2023-10-09T09:56:31.872Z,64.48
2023-10-09T09:57:31.364Z,64.48
2023-10-09T09:58:31.646Z,64.36
2023-10-09T09:59:31.499Z,64.25
2023-10-09T10:00:31.514Z,64.25
2023-10-09T10:01:32.052Z,64.25
2023-10-09T10:02:31.583Z,64.36
2023-10-09T10:03:31.773Z,64.45
2023-10-09T10:04:32.054Z,64.25
2023-10-09T10:05:31.561Z,64.15
2023-10-09T10:06:31.666Z,64.36
2023-10-09T10:07:31.582Z,64.32
2023-10-09T10:08:31.549Z,64.12
2023-10-09T10:09:31.578Z,64.03
2023-10-09T10:10:31.608Z,63.82
2023-10-09T10:11:31.597Z,63.69
2023-10-09T10:12:31.591Z,63.59
2023-10-09T10:13:32.160Z,63.59
2023-10-09T10:14:31.648Z,63.49
2023-10-09T10:15:32.442Z,63.59
2023-10-09T10:16:31.691Z,63.49
2023-10-09T10:17:31.743Z,63.59
2023-10-09T10:18:31.676Z,63.59
2023-10-09T10:19:31.988Z,63.59
2023-10-09T10:21:31.922Z,63.59
2023-10-09T10:22:32.265Z,63.49
2023-10-09T10:23:31.756Z,63.19
2023-10-09T10:24:31.794Z,62.99
2023-10-09T10:25:31.779Z,63.19
2023-10-09T10:26:31.868Z,63.29
2023-10-09T10:27:31.759Z,63.29
2023-10-09T10:28:32.556Z,63.19
2023-10-09T10:29:31.817Z,63.19
2023-10-09T10:30:31.847Z,63.19
2023-10-09T10:31:31.817Z,63.19
2023-10-09T10:32:31.800Z,63.09
2023-10-09T10:33:31.816Z,63.19
2023-10-09T10:34:31.917Z,63.06
2023-10-09T10:35:31.851Z,62.96
2023-10-09T10:36:31.913Z,62.96
2023-10-09T10:37:31.906Z,62.96
2023-10-09T10:38:31.856Z,62.96
2023-10-09T10:39:31.904Z,63.06
2023-10-09T10:40:31.906Z,63.06
2023-10-09T10:41:31.891Z,62.86
2023-10-09T10:42:31.920Z,62.86
2023-10-09T10:43:32.345Z,63.19
2023-10-09T10:44:32.651Z,63.19
2023-10-09T10:45:31.969Z,63.29
2023-10-09T10:46:32.036Z,63.49
2023-10-09T10:47:32.067Z,63.59
2023-10-09T10:48:31.989Z,63.89
2023-10-09T10:49:32.120Z,63.79
2023-10-09T10:50:32.065Z,63.92
2023-10-09T10:51:32.056Z,64.03
2023-10-09T10:52:32.136Z,64.22
2023-10-09T10:53:32.197Z,64.12
2023-10-09T10:54:32.068Z,64.52
2023-10-09T10:55:35.362Z,64.62
2023-10-09T10:57:32.104Z,64.42
2023-10-09T10:58:32.207Z,64.32
2023-10-09T10:59:32.422Z,64.12
2023-10-09T11:01:32.580Z,63.89
2023-10-09T11:02:32.132Z,63.89
2023-10-09T11:03:32.371Z,63.79
2023-10-09T11:04:32.330Z,63.79
2023-10-09T11:05:32.233Z,63.69
2023-10-09T11:07:32.242Z,63.69
2023-10-09T11:09:46.750Z,63.79
2023-10-09T11:10:32.522Z,63.69
2023-10-09T11:11:32.214Z,63.79
2023-10-09T11:12:32.282Z,63.89
2023-10-09T11:13:32.367Z,63.89
2023-10-09T11:14:32.208Z,64.03
2023-10-09T11:15:32.212Z,64.12
2023-10-09T11:16:32.363Z,64.19
2023-10-09T11:17:32.302Z,64.19
2023-10-09T11:18:32.328Z,64.19
2023-10-09T11:19:32.245Z,64.19
2023-10-09T11:20:32.236Z,64.19
2023-10-09T11:21:32.880Z,64.09
2023-10-09T11:22:32.418Z,64.00
2023-10-09T11:23:32.277Z,63.89
2023-10-09T11:24:32.592Z,63.89
2023-10-09T11:26:32.285Z,63.56
2023-10-09T11:27:32.330Z,63.46
2023-10-09T11:28:32.437Z,63.36
2023-10-09T11:29:32.350Z,63.49
2023-10-09T11:30:32.455Z,63.49
2023-10-09T11:31:32.554Z,63.49
2023-10-09T11:32:32.369Z,63.49
2023-10-09T11:33:32.351Z,63.36
2023-10-09T11:34:32.403Z,63.26
2023-10-09T11:35:32.380Z,63.17
2023-10-09T11:36:32.476Z,63.17
2023-10-09T11:37:32.783Z,63.17
2023-10-09T11:38:32.454Z,63.29
2023-10-09T11:39:32.563Z,63.39
2023-10-09T11:40:32.511Z,63.49
2023-10-09T11:41:32.497Z,63.49
2023-10-09T11:42:32.490Z,63.39
2023-10-09T11:43:32.537Z,63.39
2023-10-09T11:44:32.657Z,63.29
2023-10-09T11:45:32.879Z,63.19
2023-10-09T11:48:32.827Z,63.26
2023-10-09T11:49:32.561Z,63.06
2023-10-09T11:50:33.627Z,63.06
2023-10-09T11:51:32.594Z,63.06
2023-10-09T11:52:32.704Z,62.86
2023-10-09T11:54:32.606Z,62.63
2023-10-09T11:55:32.643Z,62.66
2023-10-09T11:56:32.599Z,62.66
2023-10-09T11:57:32.635Z,62.76
2023-10-09T11:58:32.610Z,62.96
2023-10-09T11:59:32.752Z,62.76
2023-10-09T12:00:32.749Z,62.63
2023-10-09T12:01:32.781Z,62.53
2023-10-09T12:02:32.890Z,62.43
2023-10-09T12:03:32.845Z,62.34
2023-10-09T12:04:33.145Z,62.34
2023-10-09T12:05:32.737Z,62.23
2023-10-09T12:06:32.975Z,62.13
2023-10-09T12:07:32.849Z,62.13
2023-10-09T12:08:32.784Z,62.13
2023-10-09T12:09:32.801Z,62.13
2023-10-09T12:10:32.739Z,62.23
2023-10-09T12:11:32.837Z,62.23
2023-10-09T12:12:32.788Z,62.34
2023-10-09T12:13:32.961Z,62.34
2023-10-09T12:14:32.787Z,62.34
2023-10-09T12:15:32.867Z,62.34
2023-10-09T12:16:32.886Z,62.37
2023-10-09T12:17:33.424Z,62.37
2023-10-09T12:18:33.340Z,62.37
2023-10-09T12:19:32.867Z,62.26
2023-10-09T12:20:33.043Z,62.13
2023-10-09T12:21:32.894Z,62.04
2023-10-09T12:22:33.032Z,61.93
2023-10-09T12:23:32.911Z,61.93
2023-10-09T12:24:32.903Z,61.93
2023-10-09T12:25:33.093Z,61.93
2023-10-09T12:26:32.911Z,62.04
2023-10-09T12:27:32.934Z,62.04
2023-10-09T12:29:32.931Z,61.93
2023-10-09T12:31:33.565Z,61.93
2023-10-09T12:32:32.968Z,61.73
2023-10-09T12:33:35.195Z,61.63
2023-10-09T12:35:34.672Z,61.54
2023-10-09T12:36:33.004Z,61.54
2023-10-09T12:37:32.994Z,61.43
2023-10-09T12:38:33.180Z,61.33
2023-10-09T12:39:32.973Z,61.30
2023-10-09T12:40:33.030Z,61.21
2023-10-09T12:41:32.988Z,61.10
2023-10-09T12:42:33.450Z,61.00
2023-10-09T12:43:33.016Z,60.91
2023-10-09T12:44:33.928Z,60.80
2023-10-09T12:45:33.061Z,60.80
2023-10-09T12:46:33.111Z,60.91
2023-10-09T12:47:33.212Z,60.91
2023-10-09T12:48:33.091Z,60.91
2023-10-09T12:49:33.115Z,60.91
2023-10-09T12:50:33.085Z,60.91
2023-10-09T12:51:33.204Z,60.91
2023-10-09T12:52:33.127Z,61.00
2023-10-09T12:54:33.186Z,60.91
2023-10-09T12:55:33.397Z,60.71
2023-10-09T12:56:33.191Z,60.38
2023-10-09T12:57:33.192Z,60.28
2023-10-09T12:58:33.162Z,60.17
2023-10-09T12:59:33.212Z,60.08
2023-10-09T13:00:33.173Z,60.08
2023-10-09T13:02:33.343Z,59.75
2023-10-09T13:03:33.508Z,59.65
2023-10-09T13:05:33.293Z,59.35
2023-10-09T13:06:33.284Z,59.35
2023-10-09T13:07:33.376Z,59.25
2023-10-09T13:08:33.322Z,59.05
2023-10-09T13:09:33.397Z,59.05
2023-10-09T13:10:33.415Z,59.05
2023-10-09T13:11:33.396Z,59.05
2023-10-09T13:12:33.418Z,59.15
2023-10-09T13:13:33.459Z,59.35
2023-10-09T13:16:59.661Z,59.68
2023-10-09T13:17:59.855Z,59.58
2023-10-09T13:19:00.016Z,59.45
2023-10-09T13:19:59.494Z,59.35
2023-10-09T13:20:59.499Z,59.25
2023-10-09T13:21:59.492Z,59.15
2023-10-09T13:23:59.448Z,59.25
2023-10-09T13:24:59.542Z,59.45
2023-10-09T13:25:59.677Z,59.48
2023-10-09T13:26:59.854Z,59.58
2023-10-09T13:27:59.629Z,59.58
2023-10-09T13:28:59.695Z,59.58
2023-10-09T13:29:59.546Z,59.55
2023-10-09T13:31:59.827Z,59.45
2023-10-09T13:32:59.647Z,59.35
2023-10-09T13:33:59.666Z,59.25
2023-10-09T13:35:59.686Z,59.15
2023-10-09T13:36:59.728Z,59.15